Aviation Digital Data Service (ADDS)

Output produced by METARs form (2351 UTC 18 October 2019)
found at http://www.aviationweather.gov/metar/data/
 
METAR text: VECC 182330Z 00000KT 2600 BR FEW020 25/24 Q1012 NOSIG
Conditions at: VECC (CALCUTTA/DUM DUM, IN) observed 2330 UTC 18 October 2019
Temperature: 25.0°C (77°F)
Dewpoint: 24.0°C (75°F) [RH = 94%]
Pressure (altimeter): 29.88 inches Hg (1012.0 mb)
Winds: calm
Visibility: 1.62 miles (2.61 km)
Ceiling: at least 12,000 feet AGL
Clouds: few clouds at 2000 feet AGL
Weather: BR  (mist)

METAR text: VECC 182300Z 00000KT 2600 BR FEW020 25/24 Q1012 NOSIG
Conditions at: VECC (CALCUTTA/DUM DUM, IN) observed 2300 UTC 18 October 2019
Temperature: 25.0°C (77°F)
Dewpoint: 24.0°C (75°F) [RH = 94%]
Pressure (altimeter): 29.88 inches Hg (1012.0 mb)
Winds: calm
Visibility: 1.62 miles (2.61 km)
Ceiling: at least 12,000 feet AGL
Clouds: few clouds at 2000 feet AGL
Weather: BR  (mist)

METAR text: VECC 182230Z 00000KT 2600 BR FEW020 25/24 Q1012 NOSIG
Conditions at: VECC (CALCUTTA/DUM DUM, IN) observed 2230 UTC 18 October 2019
Temperature: 25.0°C (77°F)
Dewpoint: 24.0°C (75°F) [RH = 94%]
Pressure (altimeter): 29.88 inches Hg (1012.0 mb)
Winds: calm
Visibility: 1.62 miles (2.61 km)
Ceiling: at least 12,000 feet AGL
Clouds: few clouds at 2000 feet AGL
Weather: BR  (mist)

METAR text: VECC 182200Z 00000KT 2600 BR NSC 25/25 Q1012 NOSIG
Conditions at: VECC (CALCUTTA/DUM DUM, IN) observed 2200 UTC 18 October 2019
Temperature: 25.0°C (77°F)
Dewpoint: 25.0°C (77°F) [RH = 100%]
Pressure (altimeter): 29.88 inches Hg (1012.0 mb)
Winds: calm
Visibility: 1.62 miles (2.61 km)
Ceiling: at least 12,000 feet AGL
Clouds: sky clear below 12,000 feet AGL
Weather: BR  (mist)

METAR text: VECC 182130Z 00000KT 2600 BR NSC 25/25 Q1012 NOSIG
Conditions at: VECC (CALCUTTA/DUM DUM, IN) observed 2130 UTC 18 October 2019
Temperature: 25.0°C (77°F)
Dewpoint: 25.0°C (77°F) [RH = 100%]
Pressure (altimeter): 29.88 inches Hg (1012.0 mb)
Winds: calm
Visibility: 1.62 miles (2.61 km)
Ceiling: at least 12,000 feet AGL
Clouds: sky clear below 12,000 feet AGL
Weather: BR  (mist)

METAR text: VECC 182100Z 00000KT 2800 BR NSC 26/25 Q1012 NOSIG
Conditions at: VECC (CALCUTTA/DUM DUM, IN) observed 2100 UTC 18 October 2019
Temperature: 26.0°C (79°F)
Dewpoint: 25.0°C (77°F) [RH = 94%]
Pressure (altimeter): 29.88 inches Hg (1012.0 mb)
Winds: calm
Visibility: 1.74 miles (2.80 km)
Ceiling: at least 12,000 feet AGL
Clouds: sky clear below 12,000 feet AGL
Weather: BR  (mist)

METAR text: VECC 182030Z 03003KT 2800 BR NSC 26/25 Q1012 NOSIG
Conditions at: VECC (CALCUTTA/DUM DUM, IN) observed 2030 UTC 18 October 2019
Temperature: 26.0°C (79°F)
Dewpoint: 25.0°C (77°F) [RH = 94%]
Pressure (altimeter): 29.88 inches Hg (1012.0 mb)
Winds: from the NNE (30 degrees) at 3 MPH (3 knots; 1.5 m/s)
Visibility: 1.74 miles (2.80 km)
Ceiling: at least 12,000 feet AGL
Clouds: sky clear below 12,000 feet AGL
Weather: BR  (mist)

METAR text: VECC 182000Z 00000KT 2800 BR NSC 26/25 Q1012 NOSIG
Conditions at: VECC (CALCUTTA/DUM DUM, IN) observed 2000 UTC 18 October 2019
Temperature: 26.0°C (79°F)
Dewpoint: 25.0°C (77°F) [RH = 94%]
Pressure (altimeter): 29.88 inches Hg (1012.0 mb)
Winds: calm
Visibility: 1.74 miles (2.80 km)
Ceiling: at least 12,000 feet AGL
Clouds: sky clear below 12,000 feet AGL
Weather: BR  (mist)

METAR text: VECC 181930Z 00000KT 2800 BR NSC 27/26 Q1012 NOSIG
Conditions at: VECC (CALCUTTA/DUM DUM, IN) observed 1930 UTC 18 October 2019
Temperature: 27.0°C (81°F)
Dewpoint: 26.0°C (79°F) [RH = 94%]
Pressure (altimeter): 29.88 inches Hg (1012.0 mb)
Winds: calm
Visibility: 1.74 miles (2.80 km)
Ceiling: at least 12,000 feet AGL
Clouds: sky clear below 12,000 feet AGL
Weather: BR  (mist)

METAR text: VECC 181900Z 00000KT 2800 HZ NSC 27/26 Q1012 NOSIG
Conditions at: VECC (CALCUTTA/DUM DUM, IN) observed 1900 UTC 18 October 2019
Temperature: 27.0°C (81°F)
Dewpoint: 26.0°C (79°F) [RH = 94%]
Pressure (altimeter): 29.88 inches Hg (1012.0 mb)
Winds: calm
Visibility: 1.74 miles (2.80 km)
Ceiling: at least 12,000 feet AGL
Clouds: sky clear below 12,000 feet AGL
Weather: HZ  (haze)

METAR text: VECC 181830Z 00000KT 3200 HZ NSC 27/26 Q1012 BECMG 3000 HZ
Conditions at: VECC (CALCUTTA/DUM DUM, IN) observed 1830 UTC 18 October 2019
Temperature: 27.0°C (81°F)
Dewpoint: 26.0°C (79°F) [RH = 94%]
Pressure (altimeter): 29.88 inches Hg (1012.0 mb)
Winds: calm
Visibility: 1.99 miles (3.20 km)
Ceiling: at least 12,000 feet AGL
Clouds: sky clear below 12,000 feet AGL
Weather: HZ  (haze)

METAR text: VECC 181800Z 00000KT 3200 HZ NSC 27/26 Q1012 NOSIG
Conditions at: VECC (CALCUTTA/DUM DUM, IN) observed 1800 UTC 18 October 2019
Temperature: 27.0°C (81°F)
Dewpoint: 26.0°C (79°F) [RH = 94%]
Pressure (altimeter): 29.88 inches Hg (1012.0 mb)
Winds: calm
Visibility: 1.99 miles (3.20 km)
Ceiling: at least 12,000 feet AGL
Clouds: sky clear below 12,000 feet AGL
Weather: HZ  (haze)

METAR text: VECC 181730Z 00000KT 3200 HZ NSC 27/26 Q1012 NOSIG
Conditions at: VECC (CALCUTTA/DUM DUM, IN) observed 1730 UTC 18 October 2019
Temperature: 27.0°C (81°F)
Dewpoint: 26.0°C (79°F) [RH = 94%]
Pressure (altimeter): 29.88 inches Hg (1012.0 mb)
Winds: calm
Visibility: 1.99 miles (3.20 km)
Ceiling: at least 12,000 feet AGL
Clouds: sky clear below 12,000 feet AGL
Weather: HZ  (haze)

METAR text: VECC 181700Z 00000KT 3200 HZ FEW020 28/26 Q1012 NOSIG
Conditions at: VECC (CALCUTTA/DUM DUM, IN) observed 1700 UTC 18 October 2019
Temperature: 28.0°C (82°F)
Dewpoint: 26.0°C (79°F) [RH = 89%]
Pressure (altimeter): 29.88 inches Hg (1012.0 mb)
Winds: calm
Visibility: 1.99 miles (3.20 km)
Ceiling: at least 12,000 feet AGL
Clouds: few clouds at 2000 feet AGL
Weather: HZ  (haze)

METAR text: VECC 181630Z 00000KT 3200 HZ FEW020 28/26 Q1012 NOSIG
Conditions at: VECC (CALCUTTA/DUM DUM, IN) observed 1630 UTC 18 October 2019
Temperature: 28.0°C (82°F)
Dewpoint: 26.0°C (79°F) [RH = 89%]
Pressure (altimeter): 29.88 inches Hg (1012.0 mb)
Winds: calm
Visibility: 1.99 miles (3.20 km)
Ceiling: at least 12,000 feet AGL
Clouds: few clouds at 2000 feet AGL
Weather: HZ  (haze)

METAR text: VECC 181600Z 00000KT 3200 HZ FEW020 28/26 Q1012 NOSIG
Conditions at: VECC (CALCUTTA/DUM DUM, IN) observed 1600 UTC 18 October 2019
Temperature: 28.0°C (82°F)
Dewpoint: 26.0°C (79°F) [RH = 89%]
Pressure (altimeter): 29.88 inches Hg (1012.0 mb)
Winds: calm
Visibility: 1.99 miles (3.20 km)
Ceiling: at least 12,000 feet AGL
Clouds: few clouds at 2000 feet AGL
Weather: HZ  (haze)

METAR text: VECC 181530Z 00000KT 3200 HZ FEW020 28/25 Q1012 NOSIG
Conditions at: VECC (CALCUTTA/DUM DUM, IN) observed 1530 UTC 18 October 2019
Temperature: 28.0°C (82°F)
Dewpoint: 25.0°C (77°F) [RH = 84%]
Pressure (altimeter): 29.88 inches Hg (1012.0 mb)
Winds: calm
Visibility: 1.99 miles (3.20 km)
Ceiling: at least 12,000 feet AGL
Clouds: few clouds at 2000 feet AGL
Weather: HZ  (haze)

METAR text: VECC 181500Z 00000KT 3200 HZ FEW020 29/26 Q1012 NOSIG
Conditions at: VECC (CALCUTTA/DUM DUM, IN) observed 1500 UTC 18 October 2019
Temperature: 29.0°C (84°F)
Dewpoint: 26.0°C (79°F) [RH = 84%]
Pressure (altimeter): 29.88 inches Hg (1012.0 mb)
Winds: calm
Visibility: 1.99 miles (3.20 km)
Ceiling: at least 12,000 feet AGL
Clouds: few clouds at 2000 feet AGL
Weather: HZ  (haze)

METAR text: VECC 181430Z 00000KT 3200 HZ FEW020 29/26 Q1011 NOSIG
Conditions at: VECC (CALCUTTA/DUM DUM, IN) observed 1430 UTC 18 October 2019
Temperature: 29.0°C (84°F)
Dewpoint: 26.0°C (79°F) [RH = 84%]
Pressure (altimeter): 29.85 inches Hg (1011.0 mb)
Winds: calm
Visibility: 1.99 miles (3.20 km)
Ceiling: at least 12,000 feet AGL
Clouds: few clouds at 2000 feet AGL
Weather: HZ  (haze)

METAR text: VECC 181400Z 08003KT 3200 HZ FEW020 29/26 Q1011 NOSIG
Conditions at: VECC (CALCUTTA/DUM DUM, IN) observed 1400 UTC 18 October 2019
Temperature: 29.0°C (84°F)
Dewpoint: 26.0°C (79°F) [RH = 84%]
Pressure (altimeter): 29.85 inches Hg (1011.0 mb)
Winds: from the E (80 degrees) at 3 MPH (3 knots; 1.5 m/s)
Visibility: 1.99 miles (3.20 km)
Ceiling: at least 12,000 feet AGL
Clouds: few clouds at 2000 feet AGL
Weather: HZ  (haze)

METAR text: VECC 181330Z 06003KT 3200 HZ FEW020 29/26 Q1010 NOSIG
Conditions at: VECC (CALCUTTA/DUM DUM, IN) observed 1330 UTC 18 October 2019
Temperature: 29.0°C (84°F)
Dewpoint: 26.0°C (79°F) [RH = 84%]
Pressure (altimeter): 29.82 inches Hg (1010.0 mb)
Winds: from the ENE (60 degrees) at 3 MPH (3 knots; 1.5 m/s)
Visibility: 1.99 miles (3.20 km)
Ceiling: at least 12,000 feet AGL
Clouds: few clouds at 2000 feet AGL
Weather: HZ  (haze)

METAR text: VECC 181300Z 07003KT 3200 HZ FEW020 31/25 Q1010 BECMG 3000 HZ
Conditions at: VECC (CALCUTTA/DUM DUM, IN) observed 1300 UTC 18 October 2019
Temperature: 31.0°C (88°F)
Dewpoint: 25.0°C (77°F) [RH = 71%]
Pressure (altimeter): 29.82 inches Hg (1010.0 mb)
Winds: from the ENE (70 degrees) at 3 MPH (3 knots; 1.5 m/s)
Visibility: 1.99 miles (3.20 km)
Ceiling: at least 12,000 feet AGL
Clouds: few clouds at 2000 feet AGL
Weather: HZ  (haze)

METAR text: VECC 181230Z 03003KT 3200 HZ FEW020 31/25 Q1010 NOSIG
Conditions at: VECC (CALCUTTA/DUM DUM, IN) observed 1230 UTC 18 October 2019
Temperature: 31.0°C (88°F)
Dewpoint: 25.0°C (77°F) [RH = 71%]
Pressure (altimeter): 29.82 inches Hg (1010.0 mb)
Winds: from the NNE (30 degrees) at 3 MPH (3 knots; 1.5 m/s)
Visibility: 1.99 miles (3.20 km)
Ceiling: at least 12,000 feet AGL
Clouds: few clouds at 2000 feet AGL
Weather: HZ  (haze)

METAR text: VECC 181200Z 06003KT 3200 HZ SCT020 31/26 Q1010 NOSIG
Conditions at: VECC (CALCUTTA/DUM DUM, IN) observed 1200 UTC 18 October 2019
Temperature: 31.0°C (88°F)
Dewpoint: 26.0°C (79°F) [RH = 75%]
Pressure (altimeter): 29.82 inches Hg (1010.0 mb)
Winds: from the ENE (60 degrees) at 3 MPH (3 knots; 1.5 m/s)
Visibility: 1.99 miles (3.20 km)
Ceiling: at least 12,000 feet AGL
Clouds: scattered clouds at 2000 feet AGL
Weather: HZ  (haze)

METAR text: VECC 181130Z 07003KT 3500 HZ SCT020 32/26 Q1010 NOSIG
Conditions at: VECC (CALCUTTA/DUM DUM, IN) observed 1130 UTC 18 October 2019
Temperature: 32.0°C (90°F)
Dewpoint: 26.0°C (79°F) [RH = 71%]
Pressure (altimeter): 29.82 inches Hg (1010.0 mb)
Winds: from the ENE (70 degrees) at 3 MPH (3 knots; 1.5 m/s)
Visibility: 2.17 miles (3.49 km)
Ceiling: at least 12,000 feet AGL
Clouds: scattered clouds at 2000 feet AGL
Weather: HZ  (haze)

METAR text: VECC 181100Z 07005KT 3500 HZ FEW020 SCT025 32/26 Q1010 NOSIG
Conditions at: VECC (CALCUTTA/DUM DUM, IN) observed 1100 UTC 18 October 2019
Temperature: 32.0°C (90°F)
Dewpoint: 26.0°C (79°F) [RH = 71%]
Pressure (altimeter): 29.82 inches Hg (1010.0 mb)
Winds: from the ENE (70 degrees) at 6 MPH (5 knots; 2.6 m/s)
Visibility: 2.17 miles (3.49 km)
Ceiling: at least 12,000 feet AGL
Clouds: few clouds at 2000 feet AGL
scattered clouds at 2500 feet AGL
Weather: HZ  (haze)

METAR text: VECC 181030Z 09005KT 3500 HZ FEW020 SCT025 33/26 Q1010 NOSIG
Conditions at: VECC (CALCUTTA/DUM DUM, IN) observed 1030 UTC 18 October 2019
Temperature: 33.0°C (91°F)
Dewpoint: 26.0°C (79°F) [RH = 67%]
Pressure (altimeter): 29.82 inches Hg (1010.0 mb)
Winds: from the E (90 degrees) at 6 MPH (5 knots; 2.6 m/s)
Visibility: 2.17 miles (3.49 km)
Ceiling: at least 12,000 feet AGL
Clouds: few clouds at 2000 feet AGL
scattered clouds at 2500 feet AGL
Weather: HZ  (haze)

METAR text: VECC 181000Z 08005KT 3500 HZ SCT020 SCT025 33/26 Q1010 NOSIG
Conditions at: VECC (CALCUTTA/DUM DUM, IN) observed 1000 UTC 18 October 2019
Temperature: 33.0°C (91°F)
Dewpoint: 26.0°C (79°F) [RH = 67%]
Pressure (altimeter): 29.82 inches Hg (1010.0 mb)
Winds: from the E (80 degrees) at 6 MPH (5 knots; 2.6 m/s)
Visibility: 2.17 miles (3.49 km)
Ceiling: at least 12,000 feet AGL
Clouds: scattered clouds at 2000 feet AGL
scattered clouds at 2500 feet AGL
Weather: HZ  (haze)

METAR text: VECC 180930Z 08005KT 3500 HZ SCT020 SCT025 33/26 Q1010 NOSIG
Conditions at: VECC (CALCUTTA/DUM DUM, IN) observed 0930 UTC 18 October 2019
Temperature: 33.0°C (91°F)
Dewpoint: 26.0°C (79°F) [RH = 67%]
Pressure (altimeter): 29.82 inches Hg (1010.0 mb)
Winds: from the E (80 degrees) at 6 MPH (5 knots; 2.6 m/s)
Visibility: 2.17 miles (3.49 km)
Ceiling: at least 12,000 feet AGL
Clouds: scattered clouds at 2000 feet AGL
scattered clouds at 2500 feet AGL
Weather: HZ  (haze)

METAR text: VECC 180900Z 08005KT 3500 HZ SCT020 SCT025 33/26 Q1010 NOSIG
Conditions at: VECC (CALCUTTA/DUM DUM, IN) observed 0900 UTC 18 October 2019
Temperature: 33.0°C (91°F)
Dewpoint: 26.0°C (79°F) [RH = 67%]
Pressure (altimeter): 29.82 inches Hg (1010.0 mb)
Winds: from the E (80 degrees) at 6 MPH (5 knots; 2.6 m/s)
Visibility: 2.17 miles (3.49 km)
Ceiling: at least 12,000 feet AGL
Clouds: scattered clouds at 2000 feet AGL
scattered clouds at 2500 feet AGL
Weather: HZ  (haze)

METAR text: VECC 180830Z 07003KT 3500 HZ SCT020 SCT025 33/27 Q1011 NOSIG
Conditions at: VECC (CALCUTTA/DUM DUM, IN) observed 0830 UTC 18 October 2019
Temperature: 33.0°C (91°F)
Dewpoint: 27.0°C (81°F) [RH = 71%]
Pressure (altimeter): 29.85 inches Hg (1011.0 mb)
Winds: from the ENE (70 degrees) at 3 MPH (3 knots; 1.5 m/s)
Visibility: 2.17 miles (3.49 km)
Ceiling: at least 12,000 feet AGL
Clouds: scattered clouds at 2000 feet AGL
scattered clouds at 2500 feet AGL
Weather: HZ  (haze)

METAR text: VECC 180800Z 05004KT 3200 HZ SCT020 SCT025 33/26 Q1011 NOSIG
Conditions at: VECC (CALCUTTA/DUM DUM, IN) observed 0800 UTC 18 October 2019
Temperature: 33.0°C (91°F)
Dewpoint: 26.0°C (79°F) [RH = 67%]
Pressure (altimeter): 29.85 inches Hg (1011.0 mb)
Winds: from the NE (50 degrees) at 5 MPH (4 knots; 2.1 m/s)
Visibility: 1.99 miles (3.20 km)
Ceiling: at least 12,000 feet AGL
Clouds: scattered clouds at 2000 feet AGL
scattered clouds at 2500 feet AGL
Weather: HZ  (haze)

METAR text: VECC 180730Z 06005KT 3200 HZ SCT020 SCT025 34/27 Q1012 NOSIG
Conditions at: VECC (CALCUTTA/DUM DUM, IN) observed 0730 UTC 18 October 2019
Temperature: 34.0°C (93°F)
Dewpoint: 27.0°C (81°F) [RH = 67%]
Pressure (altimeter): 29.88 inches Hg (1012.0 mb)
Winds: from the ENE (60 degrees) at 6 MPH (5 knots; 2.6 m/s)
Visibility: 1.99 miles (3.20 km)
Ceiling: at least 12,000 feet AGL
Clouds: scattered clouds at 2000 feet AGL
scattered clouds at 2500 feet AGL
Weather: HZ  (haze)

METAR text: VECC 180700Z 06005KT 3200 HZ SCT020 SCT025 33/27 Q1012 NOSIG
Conditions at: VECC (CALCUTTA/DUM DUM, IN) observed 0700 UTC 18 October 2019
Temperature: 33.0°C (91°F)
Dewpoint: 27.0°C (81°F) [RH = 71%]
Pressure (altimeter): 29.88 inches Hg (1012.0 mb)
Winds: from the ENE (60 degrees) at 6 MPH (5 knots; 2.6 m/s)
Visibility: 1.99 miles (3.20 km)
Ceiling: at least 12,000 feet AGL
Clouds: scattered clouds at 2000 feet AGL
scattered clouds at 2500 feet AGL
Weather: HZ  (haze)

METAR text: VECC 180630Z 07003KT 3200 HZ SCT020 SCT025 33/27 Q1013 NOSIG
Conditions at: VECC (CALCUTTA/DUM DUM, IN) observed 0630 UTC 18 October 2019
Temperature: 33.0°C (91°F)
Dewpoint: 27.0°C (81°F) [RH = 71%]
Pressure (altimeter): 29.91 inches Hg (1013.0 mb)
Winds: from the ENE (70 degrees) at 3 MPH (3 knots; 1.5 m/s)
Visibility: 1.99 miles (3.20 km)
Ceiling: at least 12,000 feet AGL
Clouds: scattered clouds at 2000 feet AGL
scattered clouds at 2500 feet AGL
Weather: HZ  (haze)

METAR text: VECC 180600Z 08004KT 3200 HZ SCT020 SCT025 32/27 Q1013 NOSIG
Conditions at: VECC (CALCUTTA/DUM DUM, IN) observed 0600 UTC 18 October 2019
Temperature: 32.0°C (90°F)
Dewpoint: 27.0°C (81°F) [RH = 75%]
Pressure (altimeter): 29.91 inches Hg (1013.0 mb)
Winds: from the E (80 degrees) at 5 MPH (4 knots; 2.1 m/s)
Visibility: 1.99 miles (3.20 km)
Ceiling: at least 12,000 feet AGL
Clouds: scattered clouds at 2000 feet AGL
scattered clouds at 2500 feet AGL
Weather: HZ  (haze)

METAR text: VECC 180530Z 10004KT 3200 HZ SCT020 SCT025 32/27 Q1014 NOSIG
Conditions at: VECC (CALCUTTA/DUM DUM, IN) observed 0530 UTC 18 October 2019
Temperature: 32.0°C (90°F)
Dewpoint: 27.0°C (81°F) [RH = 75%]
Pressure (altimeter): 29.94 inches Hg (1014.0 mb)
Winds: from the E (100 degrees) at 5 MPH (4 knots; 2.1 m/s)
Visibility: 1.99 miles (3.20 km)
Ceiling: at least 12,000 feet AGL
Clouds: scattered clouds at 2000 feet AGL
scattered clouds at 2500 feet AGL
Weather: HZ  (haze)

METAR text: VECC 180500Z 04004KT 3200 HZ SCT020 SCT025 31/27 Q1014 NOSIG
Conditions at: VECC (CALCUTTA/DUM DUM, IN) observed 0500 UTC 18 October 2019
Temperature: 31.0°C (88°F)
Dewpoint: 27.0°C (81°F) [RH = 79%]
Pressure (altimeter): 29.94 inches Hg (1014.0 mb)
Winds: from the NE (40 degrees) at 5 MPH (4 knots; 2.1 m/s)
Visibility: 1.99 miles (3.20 km)
Ceiling: at least 12,000 feet AGL
Clouds: scattered clouds at 2000 feet AGL
scattered clouds at 2500 feet AGL
Weather: HZ  (haze)

METAR text: VECC 180430Z 04004KT 3000 HZ SCT020 31/27 Q1014 NOSIG
Conditions at: VECC (CALCUTTA/DUM DUM, IN) observed 0430 UTC 18 October 2019
Temperature: 31.0°C (88°F)
Dewpoint: 27.0°C (81°F) [RH = 79%]
Pressure (altimeter): 29.94 inches Hg (1014.0 mb)
Winds: from the NE (40 degrees) at 5 MPH (4 knots; 2.1 m/s)
Visibility: 1.86 miles (2.99 km)
Ceiling: at least 12,000 feet AGL
Clouds: scattered clouds at 2000 feet AGL
Weather: HZ  (haze)

METAR text: VECC 180400Z 09004KT 3000 HZ FEW020 31/27 Q1014 NOSIG
Conditions at: VECC (CALCUTTA/DUM DUM, IN) observed 0400 UTC 18 October 2019
Temperature: 31.0°C (88°F)
Dewpoint: 27.0°C (81°F) [RH = 79%]
Pressure (altimeter): 29.94 inches Hg (1014.0 mb)
Winds: from the E (90 degrees) at 5 MPH (4 knots; 2.1 m/s)
Visibility: 1.86 miles (2.99 km)
Ceiling: at least 12,000 feet AGL
Clouds: few clouds at 2000 feet AGL
Weather: HZ  (haze)

METAR text: VECC 180330Z 06003KT 3000 HZ NSC 30/26 Q1014 NOSIG
Conditions at: VECC (CALCUTTA/DUM DUM, IN) observed 0330 UTC 18 October 2019
Temperature: 30.0°C (86°F)
Dewpoint: 26.0°C (79°F) [RH = 79%]
Pressure (altimeter): 29.94 inches Hg (1014.0 mb)
Winds: from the ENE (60 degrees) at 3 MPH (3 knots; 1.5 m/s)
Visibility: 1.86 miles (2.99 km)
Ceiling: at least 12,000 feet AGL
Clouds: sky clear below 12,000 feet AGL
Weather: HZ  (haze)

METAR text: VECC 180300Z 00000KT 2800 BR NSC 29/26 Q1015 BECMG 3000 HZ
Conditions at: VECC (CALCUTTA/DUM DUM, IN) observed 0300 UTC 18 October 2019
Temperature: 29.0°C (84°F)
Dewpoint: 26.0°C (79°F) [RH = 84%]
Pressure (altimeter): 29.97 inches Hg (1015.0 mb)
Winds: calm
Visibility: 1.74 miles (2.80 km)
Ceiling: at least 12,000 feet AGL
Clouds: sky clear below 12,000 feet AGL
Weather: BR  (mist)

METAR text: VECC 180230Z 00000KT 2600 BR NSC 28/26 Q1015 NOSIG
Conditions at: VECC (CALCUTTA/DUM DUM, IN) observed 0230 UTC 18 October 2019
Temperature: 28.0°C (82°F)
Dewpoint: 26.0°C (79°F) [RH = 89%]
Pressure (altimeter): 29.97 inches Hg (1015.0 mb)
Winds: calm
Visibility: 1.62 miles (2.61 km)
Ceiling: at least 12,000 feet AGL
Clouds: sky clear below 12,000 feet AGL
Weather: BR  (mist)

METAR text: VECC 180200Z 35003KT 2200 BR NSC 27/26 Q1014 NOSIG
Conditions at: VECC (CALCUTTA/DUM DUM, IN) observed 0200 UTC 18 October 2019
Temperature: 27.0°C (81°F)
Dewpoint: 26.0°C (79°F) [RH = 94%]
Pressure (altimeter): 29.94 inches Hg (1014.0 mb)
Winds: from the N (350 degrees) at 3 MPH (3 knots; 1.5 m/s)
Visibility: 1.37 miles (2.20 km)
Ceiling: at least 12,000 feet AGL
Clouds: sky clear below 12,000 feet AGL
Weather: BR  (mist)

METAR text: VECC 180130Z 00000KT 2000 BR NSC 26/25 Q1014 NOSIG
Conditions at: VECC (CALCUTTA/DUM DUM, IN) observed 0130 UTC 18 October 2019
Temperature: 26.0°C (79°F)
Dewpoint: 25.0°C (77°F) [RH = 94%]
Pressure (altimeter): 29.94 inches Hg (1014.0 mb)
Winds: calm
Visibility: 1.24 miles (2.00 km)
Ceiling: at least 12,000 feet AGL
Clouds: sky clear below 12,000 feet AGL
Weather: BR  (mist)

METAR text: VECC 180100Z 00000KT 1500 BR NSC 25/24 Q1013 NOSIG
Conditions at: VECC (CALCUTTA/DUM DUM, IN) observed 0100 UTC 18 October 2019
Temperature: 25.0°C (77°F)
Dewpoint: 24.0°C (75°F) [RH = 94%]
Pressure (altimeter): 29.91 inches Hg (1013.0 mb)
Winds: calm
Visibility: 0.93 miles (1.50 km)
Ceiling: at least 12,000 feet AGL
Clouds: sky clear below 12,000 feet AGL
Weather: BR  (mist)

METAR text: VECC 180030Z 00000KT 1700 BR FEW020 25/24 Q1013 BECMG 1500 BR
Conditions at: VECC (CALCUTTA/DUM DUM, IN) observed 0030 UTC 18 October 2019
Temperature: 25.0°C (77°F)
Dewpoint: 24.0°C (75°F) [RH = 94%]
Pressure (altimeter): 29.91 inches Hg (1013.0 mb)
Winds: calm
Visibility: 1.06 miles (1.71 km)
Ceiling: at least 12,000 feet AGL
Clouds: few clouds at 2000 feet AGL
Weather: BR  (mist)

METAR text: VECC 180000Z 00000KT 1800 BR FEW020 24/23 Q1013 BECMG 1500 BR
Conditions at: VECC (CALCUTTA/DUM DUM, IN) observed 0000 UTC 18 October 2019
Temperature: 24.0°C (75°F)
Dewpoint: 23.0°C (73°F) [RH = 94%]
Pressure (altimeter): 29.91 inches Hg (1013.0 mb)
Winds: calm
Visibility: 1.12 miles (1.80 km)
Ceiling: at least 12,000 feet AGL
Clouds: few clouds at 2000 feet AGL
Weather: BR  (mist)

METAR text: VECC 172330Z 00000KT 2000 BR FEW020 24/23 Q1012 NOSIG
Conditions at: VECC (CALCUTTA/DUM DUM, IN) observed 2330 UTC 17 October 2019
Temperature: 24.0°C (75°F)
Dewpoint: 23.0°C (73°F) [RH = 94%]
Pressure (altimeter): 29.88 inches Hg (1012.0 mb)
Winds: calm
Visibility: 1.24 miles (2.00 km)
Ceiling: at least 12,000 feet AGL
Clouds: few clouds at 2000 feet AGL
Weather: BR  (mist)

METAR text: VECC 172300Z 34003KT 2000 BR FEW020 24/23 Q1012 NOSIG
Conditions at: VECC (CALCUTTA/DUM DUM, IN) observed 2300 UTC 17 October 2019
Temperature: 24.0°C (75°F)
Dewpoint: 23.0°C (73°F) [RH = 94%]
Pressure (altimeter): 29.88 inches Hg (1012.0 mb)
Winds: from the NNW (340 degrees) at 3 MPH (3 knots; 1.5 m/s)
Visibility: 1.24 miles (2.00 km)
Ceiling: at least 12,000 feet AGL
Clouds: few clouds at 2000 feet AGL
Weather: BR  (mist)

METAR text: VECC 172230Z 25003KT 2000 BR FEW020 25/24 Q1012 NOSIG
Conditions at: VECC (CALCUTTA/DUM DUM, IN) observed 2230 UTC 17 October 2019
Temperature: 25.0°C (77°F)
Dewpoint: 24.0°C (75°F) [RH = 94%]
Pressure (altimeter): 29.88 inches Hg (1012.0 mb)
Winds: from the WSW (250 degrees) at 3 MPH (3 knots; 1.5 m/s)
Visibility: 1.24 miles (2.00 km)
Ceiling: at least 12,000 feet AGL
Clouds: few clouds at 2000 feet AGL
Weather: BR  (mist)

METAR text: VECC 172200Z 31003KT 2000 BR FEW020 26/24 Q1012 NOSIG
Conditions at: VECC (CALCUTTA/DUM DUM, IN) observed 2200 UTC 17 October 2019
Temperature: 26.0°C (79°F)
Dewpoint: 24.0°C (75°F) [RH = 89%]
Pressure (altimeter): 29.88 inches Hg (1012.0 mb)
Winds: from the NW (310 degrees) at 3 MPH (3 knots; 1.5 m/s)
Visibility: 1.24 miles (2.00 km)
Ceiling: at least 12,000 feet AGL
Clouds: few clouds at 2000 feet AGL
Weather: BR  (mist)

METAR text: VECC 172130Z 00000KT 2000 BR FEW020 26/24 Q1012 NOSIG
Conditions at: VECC (CALCUTTA/DUM DUM, IN) observed 2130 UTC 17 October 2019
Temperature: 26.0°C (79°F)
Dewpoint: 24.0°C (75°F) [RH = 89%]
Pressure (altimeter): 29.88 inches Hg (1012.0 mb)
Winds: calm
Visibility: 1.24 miles (2.00 km)
Ceiling: at least 12,000 feet AGL
Clouds: few clouds at 2000 feet AGL
Weather: BR  (mist)

METAR text: VECC 172100Z 00000KT 2000 BR FEW020 26/24 Q1012 NOSIG
Conditions at: VECC (CALCUTTA/DUM DUM, IN) observed 2100 UTC 17 October 2019
Temperature: 26.0°C (79°F)
Dewpoint: 24.0°C (75°F) [RH = 89%]
Pressure (altimeter): 29.88 inches Hg (1012.0 mb)
Winds: calm
Visibility: 1.24 miles (2.00 km)
Ceiling: at least 12,000 feet AGL
Clouds: few clouds at 2000 feet AGL
Weather: BR  (mist)

METAR text: VECC 172030Z 23003KT 2200 BR FEW020 26/24 Q1012 NOSIG
Conditions at: VECC (CALCUTTA/DUM DUM, IN) observed 2030 UTC 17 October 2019
Temperature: 26.0°C (79°F)
Dewpoint: 24.0°C (75°F) [RH = 89%]
Pressure (altimeter): 29.88 inches Hg (1012.0 mb)
Winds: from the SW (230 degrees) at 3 MPH (3 knots; 1.5 m/s)
Visibility: 1.37 miles (2.20 km)
Ceiling: at least 12,000 feet AGL
Clouds: few clouds at 2000 feet AGL
Weather: BR  (mist)

METAR text: VECC 172000Z 26003KT 2200 BR FEW020 26/24 Q1012 NOSIG
Conditions at: VECC (CALCUTTA/DUM DUM, IN) observed 2000 UTC 17 October 2019
Temperature: 26.0°C (79°F)
Dewpoint: 24.0°C (75°F) [RH = 89%]
Pressure (altimeter): 29.88 inches Hg (1012.0 mb)
Winds: from the W (260 degrees) at 3 MPH (3 knots; 1.5 m/s)
Visibility: 1.37 miles (2.20 km)
Ceiling: at least 12,000 feet AGL
Clouds: few clouds at 2000 feet AGL
Weather: BR  (mist)

METAR text: VECC 171930Z 00000KT 2400 BR FEW020 26/24 Q1012 NOSIG
Conditions at: VECC (CALCUTTA/DUM DUM, IN) observed 1930 UTC 17 October 2019
Temperature: 26.0°C (79°F)
Dewpoint: 24.0°C (75°F) [RH = 89%]
Pressure (altimeter): 29.88 inches Hg (1012.0 mb)
Winds: calm
Visibility: 1.49 miles (2.40 km)
Ceiling: at least 12,000 feet AGL
Clouds: few clouds at 2000 feet AGL
Weather: BR  (mist)

METAR text: VECC 171900Z 00000KT 2500 BR FEW020 26/24 Q1012 NOSIG
Conditions at: VECC (CALCUTTA/DUM DUM, IN) observed 1900 UTC 17 October 2019
Temperature: 26.0°C (79°F)
Dewpoint: 24.0°C (75°F) [RH = 89%]
Pressure (altimeter): 29.88 inches Hg (1012.0 mb)
Winds: calm
Visibility: 1.55 miles (2.49 km)
Ceiling: at least 12,000 feet AGL
Clouds: few clouds at 2000 feet AGL
Weather: BR  (mist)

METAR text: VECC 171830Z 00000KT 2800 BR FEW020 26/25 Q1013 NOSIG
Conditions at: VECC (CALCUTTA/DUM DUM, IN) observed 1830 UTC 17 October 2019
Temperature: 26.0°C (79°F)
Dewpoint: 25.0°C (77°F) [RH = 94%]
Pressure (altimeter): 29.91 inches Hg (1013.0 mb)
Winds: calm
Visibility: 1.74 miles (2.80 km)
Ceiling: at least 12,000 feet AGL
Clouds: few clouds at 2000 feet AGL
Weather: BR  (mist)

METAR text: VECC 171800Z 00000KT 2800 BR FEW020 26/25 Q1013 NOSIG
Conditions at: VECC (CALCUTTA/DUM DUM, IN) observed 1800 UTC 17 October 2019
Temperature: 26.0°C (79°F)
Dewpoint: 25.0°C (77°F) [RH = 94%]
Pressure (altimeter): 29.91 inches Hg (1013.0 mb)
Winds: calm
Visibility: 1.74 miles (2.80 km)
Ceiling: at least 12,000 feet AGL
Clouds: few clouds at 2000 feet AGL
Weather: BR  (mist)

METAR text: VECC 171730Z 00000KT 3000 BR FEW020 26/25 Q1012 NOSIG
Conditions at: VECC (CALCUTTA/DUM DUM, IN) observed 1730 UTC 17 October 2019
Temperature: 26.0°C (79°F)
Dewpoint: 25.0°C (77°F) [RH = 94%]
Pressure (altimeter): 29.88 inches Hg (1012.0 mb)
Winds: calm
Visibility: 1.86 miles (2.99 km)
Ceiling: at least 12,000 feet AGL
Clouds: few clouds at 2000 feet AGL
Weather: BR  (mist)

METAR text: VECC 171700Z 00000KT 3200 HZ FEW020 26/24 Q1012 BECMG 3000 BR
Conditions at: VECC (CALCUTTA/DUM DUM, IN) observed 1700 UTC 17 October 2019
Temperature: 26.0°C (79°F)
Dewpoint: 24.0°C (75°F) [RH = 89%]
Pressure (altimeter): 29.88 inches Hg (1012.0 mb)
Winds: calm
Visibility: 1.99 miles (3.20 km)
Ceiling: at least 12,000 feet AGL
Clouds: few clouds at 2000 feet AGL
Weather: HZ  (haze)

METAR text: VECC 171630Z 00000KT 3200 HZ FEW020 26/24 Q1013 NOSIG
Conditions at: VECC (CALCUTTA/DUM DUM, IN) observed 1630 UTC 17 October 2019
Temperature: 26.0°C (79°F)
Dewpoint: 24.0°C (75°F) [RH = 89%]
Pressure (altimeter): 29.91 inches Hg (1013.0 mb)
Winds: calm
Visibility: 1.99 miles (3.20 km)
Ceiling: at least 12,000 feet AGL
Clouds: few clouds at 2000 feet AGL
Weather: HZ  (haze)

METAR text: VECC 171600Z 00000KT 3200 HZ FEW020 26/24 Q1013 NOSIG
Conditions at: VECC (CALCUTTA/DUM DUM, IN) observed 1600 UTC 17 October 2019
Temperature: 26.0°C (79°F)
Dewpoint: 24.0°C (75°F) [RH = 89%]
Pressure (altimeter): 29.91 inches Hg (1013.0 mb)
Winds: calm
Visibility: 1.99 miles (3.20 km)
Ceiling: at least 12,000 feet AGL
Clouds: few clouds at 2000 feet AGL
Weather: HZ  (haze)

METAR text: VECC 171530Z 00000KT 3200 HZ FEW020 26/24 Q1012 NOSIG
Conditions at: VECC (CALCUTTA/DUM DUM, IN) observed 1530 UTC 17 October 2019
Temperature: 26.0°C (79°F)
Dewpoint: 24.0°C (75°F) [RH = 89%]
Pressure (altimeter): 29.88 inches Hg (1012.0 mb)
Winds: calm
Visibility: 1.99 miles (3.20 km)
Ceiling: at least 12,000 feet AGL
Clouds: few clouds at 2000 feet AGL
Weather: HZ  (haze)

METAR text: VECC 171500Z 00000KT 3200 HZ FEW020 SCT100 26/24 Q1012 NOSIG
Conditions at: VECC (CALCUTTA/DUM DUM, IN) observed 1500 UTC 17 October 2019
Temperature: 26.0°C (79°F)
Dewpoint: 24.0°C (75°F) [RH = 89%]
Pressure (altimeter): 29.88 inches Hg (1012.0 mb)
Winds: calm
Visibility: 1.99 miles (3.20 km)
Ceiling: at least 12,000 feet AGL
Clouds: few clouds at 2000 feet AGL
scattered clouds at 10000 feet AGL
Weather: HZ  (haze)

METAR text: VECC 171430Z 00000KT 3200 HZ FEW020 SCT100 26/24 Q1012 NOSIG
Conditions at: VECC (CALCUTTA/DUM DUM, IN) observed 1430 UTC 17 October 2019
Temperature: 26.0°C (79°F)
Dewpoint: 24.0°C (75°F) [RH = 89%]
Pressure (altimeter): 29.88 inches Hg (1012.0 mb)
Winds: calm
Visibility: 1.99 miles (3.20 km)
Ceiling: at least 12,000 feet AGL
Clouds: few clouds at 2000 feet AGL
scattered clouds at 10000 feet AGL
Weather: HZ  (haze)

METAR text: VECC 171400Z 00000KT 3200 HZ FEW020 SCT100 26/24 Q1012 NOSIG
Conditions at: VECC (CALCUTTA/DUM DUM, IN) observed 1400 UTC 17 October 2019
Temperature: 26.0°C (79°F)
Dewpoint: 24.0°C (75°F) [RH = 89%]
Pressure (altimeter): 29.88 inches Hg (1012.0 mb)
Winds: calm
Visibility: 1.99 miles (3.20 km)
Ceiling: at least 12,000 feet AGL
Clouds: few clouds at 2000 feet AGL
scattered clouds at 10000 feet AGL
Weather: HZ  (haze)

METAR text: VECC 171330Z 00000KT 3200 HZ FEW020 SCT100 26/25 Q1011 NOSIG
Conditions at: VECC (CALCUTTA/DUM DUM, IN) observed 1330 UTC 17 October 2019
Temperature: 26.0°C (79°F)
Dewpoint: 25.0°C (77°F) [RH = 94%]
Pressure (altimeter): 29.85 inches Hg (1011.0 mb)
Winds: calm
Visibility: 1.99 miles (3.20 km)
Ceiling: at least 12,000 feet AGL
Clouds: few clouds at 2000 feet AGL
scattered clouds at 10000 feet AGL
Weather: HZ  (haze)

METAR text: VECC 171300Z 34004KT 2800 HZ FEW020 SCT100 26/25 Q1011 BECMG 3000 HZ
Conditions at: VECC (CALCUTTA/DUM DUM, IN) observed 1300 UTC 17 October 2019
Temperature: 26.0°C (79°F)
Dewpoint: 25.0°C (77°F) [RH = 94%]
Pressure (altimeter): 29.85 inches Hg (1011.0 mb)
Winds: from the NNW (340 degrees) at 5 MPH (4 knots; 2.1 m/s)
Visibility: 1.74 miles (2.80 km)
Ceiling: at least 12,000 feet AGL
Clouds: few clouds at 2000 feet AGL
scattered clouds at 10000 feet AGL
Weather: HZ  (haze)

METAR text: VECC 171230Z 28005KT 2800 HZ SCT018 BKN100 26/25 Q1011 NOSIG
Conditions at: VECC (CALCUTTA/DUM DUM, IN) observed 1230 UTC 17 October 2019
Temperature: 26.0°C (79°F)
Dewpoint: 25.0°C (77°F) [RH = 94%]
Pressure (altimeter): 29.85 inches Hg (1011.0 mb)
Winds: from the W (280 degrees) at 6 MPH (5 knots; 2.6 m/s)
Visibility: 1.74 miles (2.80 km)
Ceiling: 10000 feet AGL
Clouds: scattered clouds at 1800 feet AGL
broken clouds at 10000 feet AGL
Weather: HZ  (haze)

METAR text: VECC 171200Z 30004KT 2500 HZ SCT018 BKN100 27/25 Q1010 NOSIG
Conditions at: VECC (CALCUTTA/DUM DUM, IN) observed 1200 UTC 17 October 2019
Temperature: 27.0°C (81°F)
Dewpoint: 25.0°C (77°F) [RH = 89%]
Pressure (altimeter): 29.82 inches Hg (1010.0 mb)
Winds: from the WNW (300 degrees) at 5 MPH (4 knots; 2.1 m/s)
Visibility: 1.55 miles (2.49 km)
Ceiling: 10000 feet AGL
Clouds: scattered clouds at 1800 feet AGL
broken clouds at 10000 feet AGL
Weather: HZ  (haze)

Forecast for: VECC (CALCUTTA/DUM DUM, IN)
Text: TAF VECC 182300Z 1900/2006 00000KT 2000 BR SCT020
Forecast period: 0000 to 0200 UTC 19 October 2019
Forecast type: FROM: standard forecast or significant change
Winds: calm
Visibility: 1.24 miles (2.00 km)
Ceiling: at least 12,000 feet AGL
Clouds: scattered clouds at 2000 feet AGL
Weather: BR  (mist)
Text: BECMG 1902/1904 05005KT 3500 HZ SCT020 SCT100
Forecast period: 0200 to 1400 UTC 19 October 2019
Forecast type: BECOMING: Conditions expected to become as follows by 0400 UTC 19 October 2019
Winds: from the NE (50 degrees) at 6 MPH (5 knots; 2.6 m/s)
Visibility: 2.17 miles (3.49 km)
Ceiling: at least 12,000 feet AGL
Clouds: scattered clouds at 2000 feet AGL
scattered clouds at 10000 feet AGL
Weather: HZ  (haze)
Text: PROB40
Forecast period: 0800 to 1200 UTC 19 October 2019
Forecast type: TEMPORARY: The following changes expected for less than half the time period
Visibility: 1.24 miles (2.00 km)
Ceiling: 9000 feet AGL
Clouds: scattered clouds at 1500 feet AGL
few clouds at 2500 feet AGL
overcast cloud deck at 9000 feet AGL
Weather: TSRA  (rain associated with thunderstorm(s))
Text: TEMPO 1908/1912 2000 TSRA SCT015 FEW025CB OVC090
Forecast period: 1400 to 1800 UTC 19 October 2019
Forecast type: BECOMING: Conditions expected to become as follows by 1600 UTC 19 October 2019
Winds: calm
Visibility: 2.17 miles (3.49 km)
Ceiling: at least 12,000 feet AGL
Clouds: scattered clouds at 2000 feet AGL
scattered clouds at 10000 feet AGL
Weather: HZ  (haze)
Text: BECMG 1914/1916 00000KT
Forecast period: 1800 UTC 19 October 2019 to 0200 UTC 20 October 2019
Forecast type: BECOMING: Conditions expected to become as follows by 2000 UTC 19 October 2019
Winds: calm
Visibility: 1.24 miles (2.00 km)
Ceiling: at least 12,000 feet AGL
Clouds: scattered clouds at 2000 feet AGL
scattered clouds at 10000 feet AGL
Weather: BR  (mist)
Text: BECMG 1918/1920 2000 BR
Forecast period: 0200 to 0600 UTC 20 October 2019
Forecast type: BECOMING: Conditions expected to become as follows by 0400 UTC 20 October 2019
Winds: from the ENE (60 degrees) at 6 MPH (5 knots; 2.6 m/s)
Visibility: 2.17 miles (3.49 km)
Ceiling: at least 12,000 feet AGL
Clouds: scattered clouds at 2000 feet AGL
scattered clouds at 10000 feet AGL
Weather: HZ  (haze)